sensor_id;sensor_type;location;lat;lon;timestamp;P1;durP1;ratioP1;P2;durP2;ratioP2
13331;SDS011;6735;51.456;12.626;2023-01-04T00:01:02;8.93;;;8.13;;
13331;SDS011;6735;51.456;12.626;2023-01-04T00:03:29;8.03;;;7.20;;
13331;SDS011;6735;51.456;12.626;2023-01-04T00:05:56;8.57;;;7.57;;
13331;SDS011;6735;51.456;12.626;2023-01-04T00:08:22;9.23;;;7.57;;
13331;SDS011;6735;51.456;12.626;2023-01-04T00:10:48;10.03;;;8.07;;
13331;SDS011;6735;51.456;12.626;2023-01-04T00:13:14;10.77;;;8.43;;
13331;SDS011;6735;51.456;12.626;2023-01-04T00:15:39;10.63;;;8.40;;
13331;SDS011;6735;51.456;12.626;2023-01-04T00:18:04;11.60;;;9.07;;
13331;SDS011;6735;51.456;12.626;2023-01-04T00:20:30;9.87;;;8.70;;
13331;SDS011;6735;51.456;12.626;2023-01-04T00:22:56;10.00;;;8.83;;
13331;SDS011;6735;51.456;12.626;2023-01-04T00:25:22;10.57;;;9.07;;
13331;SDS011;6735;51.456;12.626;2023-01-04T00:27:49;9.80;;;8.83;;
13331;SDS011;6735;51.456;12.626;2023-01-04T00:30:15;10.63;;;9.47;;
13331;SDS011;6735;51.456;12.626;2023-01-04T00:32:41;9.63;;;8.63;;
13331;SDS011;6735;51.456;12.626;2023-01-04T00:35:08;13.23;;;9.00;;
13331;SDS011;6735;51.456;12.626;2023-01-04T00:37:34;9.60;;;8.60;;
13331;SDS011;6735;51.456;12.626;2023-01-04T00:39:59;12.87;;;8.43;;
13331;SDS011;6735;51.456;12.626;2023-01-04T00:42:25;10.87;;;8.57;;
13331;SDS011;6735;51.456;12.626;2023-01-04T00:44:50;9.30;;;8.40;;
13331;SDS011;6735;51.456;12.626;2023-01-04T00:47:16;10.70;;;9.23;;
13331;SDS011;6735;51.456;12.626;2023-01-04T00:49:41;10.03;;;8.13;;
13331;SDS011;6735;51.456;12.626;2023-01-04T00:52:07;9.03;;;8.23;;
13331;SDS011;6735;51.456;12.626;2023-01-04T00:54:32;9.73;;;8.47;;
13331;SDS011;6735;51.456;12.626;2023-01-04T00:56:58;11.80;;;8.90;;
13331;SDS011;6735;51.456;12.626;2023-01-04T00:59:25;10.00;;;8.40;;
13331;SDS011;6735;51.456;12.626;2023-01-04T01:01:51;9.87;;;8.53;;
13331;SDS011;6735;51.456;12.626;2023-01-04T01:04:17;9.20;;;8.30;;
13331;SDS011;6735;51.456;12.626;2023-01-04T01:06:45;9.23;;;8.33;;
13331;SDS011;6735;51.456;12.626;2023-01-04T01:09:10;10.40;;;9.50;;
13331;SDS011;6735;51.456;12.626;2023-01-04T01:11:36;12.90;;;9.90;;
13331;SDS011;6735;51.456;12.626;2023-01-04T01:14:03;11.50;;;10.40;;
13331;SDS011;6735;51.456;12.626;2023-01-04T01:16:30;11.27;;;10.17;;
13331;SDS011;6735;51.456;12.626;2023-01-04T01:18:55;11.20;;;10.00;;
13331;SDS011;6735;51.456;12.626;2023-01-04T01:21:22;10.83;;;9.73;;
13331;SDS011;6735;51.456;12.626;2023-01-04T01:23:50;11.43;;;10.07;;
13331;SDS011;6735;51.456;12.626;2023-01-04T01:26:18;11.33;;;10.30;;
13331;SDS011;6735;51.456;12.626;2023-01-04T01:28:45;10.43;;;9.40;;
13331;SDS011;6735;51.456;12.626;2023-01-04T01:31:12;11.77;;;10.63;;
13331;SDS011;6735;51.456;12.626;2023-01-04T01:33:41;12.37;;;10.07;;
13331;SDS011;6735;51.456;12.626;2023-01-04T01:36:08;12.07;;;10.23;;
13331;SDS011;6735;51.456;12.626;2023-01-04T01:38:35;11.60;;;10.37;;
13331;SDS011;6735;51.456;12.626;2023-01-04T01:41:02;11.43;;;10.23;;
13331;SDS011;6735;51.456;12.626;2023-01-04T01:43:45;11.37;;;10.23;;
13331;SDS011;6735;51.456;12.626;2023-01-04T01:46:22;12.17;;;9.73;;
13331;SDS011;6735;51.456;12.626;2023-01-04T01:49:10;11.20;;;10.10;;
13331;SDS011;6735;51.456;12.626;2023-01-04T01:51:42;11.27;;;10.13;;
13331;SDS011;6735;51.456;12.626;2023-01-04T01:54:09;10.83;;;9.80;;
13331;SDS011;6735;51.456;12.626;2023-01-04T01:56:38;10.63;;;9.53;;
13331;SDS011;6735;51.456;12.626;2023-01-04T01:59:05;11.50;;;10.30;;
13331;SDS011;6735;51.456;12.626;2023-01-04T02:01:31;10.97;;;9.87;;
13331;SDS011;6735;51.456;12.626;2023-01-04T02:03:57;10.80;;;9.70;;
13331;SDS011;6735;51.456;12.626;2023-01-04T02:06:28;11.43;;;10.07;;
13331;SDS011;6735;51.456;12.626;2023-01-04T02:08:56;11.43;;;10.23;;
13331;SDS011;6735;51.456;12.626;2023-01-04T02:11:24;11.03;;;10.03;;
13331;SDS011;6735;51.456;12.626;2023-01-04T02:13:50;11.50;;;10.23;;
13331;SDS011;6735;51.456;12.626;2023-01-04T02:16:40;11.27;;;9.33;;
13331;SDS011;6735;51.456;12.626;2023-01-04T02:22:28;12.87;;;10.17;;
13331;SDS011;6735;51.456;12.626;2023-01-04T02:25:59;11.07;;;9.23;;
13331;SDS011;6735;51.456;12.626;2023-01-04T02:31:19;10.93;;;9.93;;
13331;SDS011;6735;51.456;12.626;2023-01-04T02:39:37;10.63;;;9.53;;
13331;SDS011;6735;51.456;12.626;2023-01-04T02:42:15;11.13;;;10.00;;
13331;SDS011;6735;51.456;12.626;2023-01-04T02:45:20;10.67;;;9.50;;
13331;SDS011;6735;51.456;12.626;2023-01-04T02:47:52;11.63;;;10.43;;
13331;SDS011;6735;51.456;12.626;2023-01-04T02:50:39;10.80;;;9.60;;
13331;SDS011;6735;51.456;12.626;2023-01-04T02:53:17;10.20;;;9.20;;
13331;SDS011;6735;51.456;12.626;2023-01-04T03:04:38;10.73;;;9.20;;
13331;SDS011;6735;51.456;12.626;2023-01-04T03:13:35;9.63;;;8.73;;
13331;SDS011;6735;51.456;12.626;2023-01-04T03:16:14;10.90;;;9.17;;
13331;SDS011;6735;51.456;12.626;2023-01-04T03:18:45;10.00;;;9.00;;
13331;SDS011;6735;51.456;12.626;2023-01-04T03:21:14;9.50;;;8.63;;
13331;SDS011;6735;51.456;12.626;2023-01-04T03:23:42;10.00;;;9.00;;
13331;SDS011;6735;51.456;12.626;2023-01-04T03:26:30;9.17;;;8.23;;
13331;SDS011;6735;51.456;12.626;2023-01-04T03:29:30;10.17;;;9.00;;
13331;SDS011;6735;51.456;12.626;2023-01-04T03:32:31;9.70;;;8.70;;
13331;SDS011;6735;51.456;12.626;2023-01-04T03:35:41;9.23;;;8.33;;
13331;SDS011;6735;51.456;12.626;2023-01-04T03:38:32;9.07;;;8.27;;
13331;SDS011;6735;51.456;12.626;2023-01-04T03:41:26;12.10;;;8.33;;
13331;SDS011;6735;51.456;12.626;2023-01-04T03:44:23;9.47;;;8.37;;
13331;SDS011;6735;51.456;12.626;2023-01-04T03:47:31;9.57;;;8.10;;
13331;SDS011;6735;51.456;12.626;2023-01-04T03:50:28;8.83;;;8.03;;
13331;SDS011;6735;51.456;12.626;2023-01-04T03:53:00;9.60;;;8.47;;
13331;SDS011;6735;51.456;12.626;2023-01-04T03:55:26;8.83;;;8.00;;
13331;SDS011;6735;51.456;12.626;2023-01-04T03:57:54;9.30;;;8.20;;
13331;SDS011;6735;51.456;12.626;2023-01-04T04:00:21;8.87;;;7.77;;
13331;SDS011;6735;51.456;12.626;2023-01-04T04:02:47;10.03;;;8.07;;
13331;SDS011;6735;51.456;12.626;2023-01-04T04:05:16;9.67;;;7.97;;
13331;SDS011;6735;51.456;12.626;2023-01-04T04:08:02;9.90;;;7.83;;
13331;SDS011;6735;51.456;12.626;2023-01-04T04:10:47;9.33;;;8.27;;
13331;SDS011;6735;51.456;12.626;2023-01-04T04:13:12;9.00;;;8.03;;
13331;SDS011;6735;51.456;12.626;2023-01-04T04:15:38;9.00;;;7.93;;
13331;SDS011;6735;51.456;12.626;2023-01-04T04:18:04;9.17;;;7.50;;
13331;SDS011;6735;51.456;12.626;2023-01-04T04:20:30;10.53;;;7.93;;
13331;SDS011;6735;51.456;12.626;2023-01-04T04:22:55;10.87;;;7.40;;
13331;SDS011;6735;51.456;12.626;2023-01-04T04:25:21;8.03;;;6.97;;
13331;SDS011;6735;51.456;12.626;2023-01-04T04:27:46;8.13;;;7.37;;
13331;SDS011;6735;51.456;12.626;2023-01-04T04:30:12;10.57;;;7.87;;
13331;SDS011;6735;51.456;12.626;2023-01-04T04:32:37;8.20;;;7.40;;
13331;SDS011;6735;51.456;12.626;2023-01-04T04:35:03;8.10;;;7.30;;
13331;SDS011;6735;51.456;12.626;2023-01-04T04:37:28;8.17;;;7.13;;
13331;SDS011;6735;51.456;12.626;2023-01-04T04:39:56;7.60;;;6.90;;
13331;SDS011;6735;51.456;12.626;2023-01-04T04:42:25;7.43;;;6.60;;
13331;SDS011;6735;51.456;12.626;2023-01-04T04:44:50;8.03;;;7.10;;
13331;SDS011;6735;51.456;12.626;2023-01-04T04:47:16;9.20;;;6.93;;
13331;SDS011;6735;51.456;12.626;2023-01-04T04:49:41;6.63;;;6.13;;
13331;SDS011;6735;51.456;12.626;2023-01-04T04:52:07;9.60;;;7.50;;
13331;SDS011;6735;51.456;12.626;2023-01-04T04:54:32;7.97;;;7.10;;
13331;SDS011;6735;51.456;12.626;2023-01-04T04:56:57;7.53;;;6.83;;
13331;SDS011;6735;51.456;12.626;2023-01-04T04:59:23;10.50;;;6.87;;
13331;SDS011;6735;51.456;12.626;2023-01-04T05:01:49;6.93;;;6.23;;
13331;SDS011;6735;51.456;12.626;2023-01-04T05:04:14;9.47;;;6.50;;
13331;SDS011;6735;51.456;12.626;2023-01-04T05:06:43;7.23;;;6.53;;
13331;SDS011;6735;51.456;12.626;2023-01-04T05:09:10;7.00;;;5.93;;
13331;SDS011;6735;51.456;12.626;2023-01-04T05:11:36;7.93;;;6.07;;
13331;SDS011;6735;51.456;12.626;2023-01-04T05:14:21;8.23;;;6.70;;
13331;SDS011;6735;51.456;12.626;2023-01-04T05:16:46;8.80;;;6.13;;
13331;SDS011;6735;51.456;12.626;2023-01-04T05:19:12;6.27;;;5.77;;
13331;SDS011;6735;51.456;12.626;2023-01-04T05:21:37;6.73;;;5.83;;
13331;SDS011;6735;51.456;12.626;2023-01-04T05:24:04;6.27;;;5.73;;
13331;SDS011;6735;51.456;12.626;2023-01-04T05:26:30;6.27;;;5.67;;
13331;SDS011;6735;51.456;12.626;2023-01-04T05:28:56;7.50;;;5.77;;
13331;SDS011;6735;51.456;12.626;2023-01-04T05:31:21;6.13;;;5.63;;
13331;SDS011;6735;51.456;12.626;2023-01-04T05:33:48;7.03;;;6.27;;
13331;SDS011;6735;51.456;12.626;2023-01-04T05:36:13;7.50;;;5.90;;
13331;SDS011;6735;51.456;12.626;2023-01-04T05:38:39;7.07;;;6.13;;
13331;SDS011;6735;51.456;12.626;2023-01-04T05:41:04;8.87;;;6.03;;
13331;SDS011;6735;51.456;12.626;2023-01-04T05:43:49;7.33;;;6.00;;
13331;SDS011;6735;51.456;12.626;2023-01-04T05:46:15;6.33;;;5.83;;
13331;SDS011;6735;51.456;12.626;2023-01-04T05:48:40;6.73;;;6.13;;
13331;SDS011;6735;51.456;12.626;2023-01-04T05:51:06;6.27;;;5.67;;
13331;SDS011;6735;51.456;12.626;2023-01-04T05:53:31;6.40;;;5.80;;
13331;SDS011;6735;51.456;12.626;2023-01-04T05:55:57;6.87;;;6.17;;
13331;SDS011;6735;51.456;12.626;2023-01-04T05:58:22;6.33;;;5.73;;
13331;SDS011;6735;51.456;12.626;2023-01-04T06:00:47;5.83;;;5.27;;
13331;SDS011;6735;51.456;12.626;2023-01-04T06:03:13;8.33;;;6.37;;
13331;SDS011;6735;51.456;12.626;2023-01-04T06:05:38;6.40;;;5.80;;
13331;SDS011;6735;51.456;12.626;2023-01-04T06:08:04;8.03;;;6.07;;
13331;SDS011;6735;51.456;12.626;2023-01-04T06:10:30;6.87;;;6.20;;
13331;SDS011;6735;51.456;12.626;2023-01-04T06:12:55;7.30;;;6.30;;
13331;SDS011;6735;51.456;12.626;2023-01-04T06:15:21;7.07;;;6.30;;
13331;SDS011;6735;51.456;12.626;2023-01-04T06:17:46;8.40;;;6.83;;
13331;SDS011;6735;51.456;12.626;2023-01-04T06:20:12;7.23;;;6.53;;
13331;SDS011;6735;51.456;12.626;2023-01-04T06:22:37;7.77;;;6.97;;
13331;SDS011;6735;51.456;12.626;2023-01-04T06:25:04;10.20;;;7.20;;
13331;SDS011;6735;51.456;12.626;2023-01-04T06:27:30;11.67;;;7.57;;
13331;SDS011;6735;51.456;12.626;2023-01-04T06:29:55;7.27;;;6.57;;
13331;SDS011;6735;51.456;12.626;2023-01-04T06:32:21;7.37;;;6.70;;
13331;SDS011;6735;51.456;12.626;2023-01-04T06:34:46;7.97;;;7.00;;
13331;SDS011;6735;51.456;12.626;2023-01-04T06:37:12;10.07;;;7.40;;
13331;SDS011;6735;51.456;12.626;2023-01-04T06:39:37;8.43;;;7.53;;
13331;SDS011;6735;51.456;12.626;2023-01-04T06:42:03;8.70;;;7.27;;
13331;SDS011;6735;51.456;12.626;2023-01-04T06:44:29;9.63;;;7.90;;
13331;SDS011;6735;51.456;12.626;2023-01-04T06:46:54;9.03;;;8.10;;
13331;SDS011;6735;51.456;12.626;2023-01-04T06:49:20;8.67;;;7.87;;
13331;SDS011;6735;51.456;12.626;2023-01-04T06:51:46;9.07;;;8.27;;
13331;SDS011;6735;51.456;12.626;2023-01-04T06:54:11;9.70;;;8.70;;
13331;SDS011;6735;51.456;12.626;2023-01-04T06:56:38;10.37;;;9.37;;
13331;SDS011;6735;51.456;12.626;2023-01-04T06:59:04;10.00;;;9.00;;
13331;SDS011;6735;51.456;12.626;2023-01-04T07:01:30;10.33;;;9.23;;
13331;SDS011;6735;51.456;12.626;2023-01-04T07:03:56;11.47;;;9.23;;
13331;SDS011;6735;51.456;12.626;2023-01-04T07:06:21;12.37;;;9.10;;
13331;SDS011;6735;51.456;12.626;2023-01-04T07:08:46;10.70;;;8.97;;
13331;SDS011;6735;51.456;12.626;2023-01-04T07:11:12;10.63;;;9.63;;
13331;SDS011;6735;51.456;12.626;2023-01-04T07:13:37;9.27;;;8.37;;
13331;SDS011;6735;51.456;12.626;2023-01-04T07:16:03;9.80;;;8.80;;
13331;SDS011;6735;51.456;12.626;2023-01-04T07:18:29;9.07;;;8.17;;
13331;SDS011;6735;51.456;12.626;2023-01-04T07:20:54;10.07;;;8.90;;
13331;SDS011;6735;51.456;12.626;2023-01-04T07:23:20;10.77;;;9.67;;
13331;SDS011;6735;51.456;12.626;2023-01-04T07:25:45;9.90;;;8.90;;
13331;SDS011;6735;51.456;12.626;2023-01-04T07:28:11;9.40;;;8.50;;
13331;SDS011;6735;51.456;12.626;2023-01-04T07:30:36;9.97;;;8.73;;
13331;SDS011;6735;51.456;12.626;2023-01-04T07:33:02;11.10;;;8.97;;
13331;SDS011;6735;51.456;12.626;2023-01-04T07:35:27;10.90;;;8.50;;
13331;SDS011;6735;51.456;12.626;2023-01-04T07:37:53;12.73;;;8.83;;
13331;SDS011;6735;51.456;12.626;2023-01-04T07:40:18;10.00;;;7.87;;
13331;SDS011;6735;51.456;12.626;2023-01-04T07:42:47;11.80;;;9.10;;
13331;SDS011;6735;51.456;12.626;2023-01-04T07:45:18;10.10;;;8.43;;
13331;SDS011;6735;51.456;12.626;2023-01-04T07:47:44;9.37;;;8.03;;
13331;SDS011;6735;51.456;12.626;2023-01-04T07:50:09;10.57;;;8.40;;
13331;SDS011;6735;51.456;12.626;2023-01-04T07:52:35;9.87;;;8.67;;
13331;SDS011;6735;51.456;12.626;2023-01-04T07:55:00;9.90;;;8.90;;
13331;SDS011;6735;51.456;12.626;2023-01-04T07:57:25;9.73;;;7.67;;
13331;SDS011;6735;51.456;12.626;2023-01-04T07:59:51;9.33;;;8.47;;
13331;SDS011;6735;51.456;12.626;2023-01-04T08:02:16;8.73;;;7.93;;
13331;SDS011;6735;51.456;12.626;2023-01-04T08:04:42;9.33;;;8.30;;
13331;SDS011;6735;51.456;12.626;2023-01-04T08:07:07;11.53;;;8.83;;
13331;SDS011;6735;51.456;12.626;2023-01-04T08:09:33;9.20;;;7.90;;
13331;SDS011;6735;51.456;12.626;2023-01-04T08:11:58;10.27;;;8.03;;
13331;SDS011;6735;51.456;12.626;2023-01-04T08:14:24;11.07;;;8.87;;
13331;SDS011;6735;51.456;12.626;2023-01-04T08:16:50;8.70;;;7.83;;
13331;SDS011;6735;51.456;12.626;2023-01-04T08:19:17;9.67;;;7.87;;
13331;SDS011;6735;51.456;12.626;2023-01-04T08:21:44;10.00;;;8.47;;
13331;SDS011;6735;51.456;12.626;2023-01-04T08:24:11;9.43;;;7.63;;
13331;SDS011;6735;51.456;12.626;2023-01-04T08:26:37;9.03;;;7.53;;
13331;SDS011;6735;51.456;12.626;2023-01-04T08:29:03;8.87;;;7.20;;
13331;SDS011;6735;51.456;12.626;2023-01-04T08:31:29;7.67;;;6.97;;
13331;SDS011;6735;51.456;12.626;2023-01-04T08:33:56;8.20;;;6.80;;
13331;SDS011;6735;51.456;12.626;2023-01-04T08:36:35;9.00;;;6.20;;
13331;SDS011;6735;51.456;12.626;2023-01-04T08:39:09;8.90;;;5.80;;
13331;SDS011;6735;51.456;12.626;2023-01-04T08:41:34;6.83;;;6.10;;
13331;SDS011;6735;51.456;12.626;2023-01-04T08:44:15;7.97;;;5.73;;
13331;SDS011;6735;51.456;12.626;2023-01-04T08:46:41;7.47;;;5.77;;
13331;SDS011;6735;51.456;12.626;2023-01-04T08:49:07;6.10;;;5.50;;
13331;SDS011;6735;51.456;12.626;2023-01-04T08:51:32;6.10;;;5.50;;
13331;SDS011;6735;51.456;12.626;2023-01-04T08:53:58;6.33;;;5.60;;
13331;SDS011;6735;51.456;12.626;2023-01-04T08:56:23;5.97;;;4.80;;
13331;SDS011;6735;51.456;12.626;2023-01-04T08:58:48;6.97;;;5.03;;
13331;SDS011;6735;51.456;12.626;2023-01-04T09:01:14;5.13;;;4.67;;
13331;SDS011;6735;51.456;12.626;2023-01-04T09:03:39;5.93;;;5.10;;
13331;SDS011;6735;51.456;12.626;2023-01-04T09:06:10;5.10;;;4.60;;
13331;SDS011;6735;51.456;12.626;2023-01-04T09:08:37;7.03;;;5.00;;
13331;SDS011;6735;51.456;12.626;2023-01-04T09:11:07;7.13;;;5.37;;
13331;SDS011;6735;51.456;12.626;2023-01-04T09:13:35;7.27;;;4.90;;
13331;SDS011;6735;51.456;12.626;2023-01-04T09:16:01;5.53;;;4.40;;
13331;SDS011;6735;51.456;12.626;2023-01-04T09:18:28;5.43;;;4.47;;
13331;SDS011;6735;51.456;12.626;2023-01-04T09:20:54;4.87;;;3.73;;
13331;SDS011;6735;51.456;12.626;2023-01-04T09:23:19;3.83;;;3.53;;
13331;SDS011;6735;51.456;12.626;2023-01-04T09:25:45;6.93;;;3.90;;
13331;SDS011;6735;51.456;12.626;2023-01-04T09:28:10;5.33;;;4.07;;
13331;SDS011;6735;51.456;12.626;2023-01-04T09:30:36;5.47;;;3.70;;
13331;SDS011;6735;51.456;12.626;2023-01-04T09:33:01;4.93;;;3.90;;
13331;SDS011;6735;51.456;12.626;2023-01-04T09:35:27;4.07;;;3.50;;
13331;SDS011;6735;51.456;12.626;2023-01-04T09:37:53;3.80;;;3.37;;
13331;SDS011;6735;51.456;12.626;2023-01-04T09:40:20;6.70;;;3.77;;
13331;SDS011;6735;51.456;12.626;2023-01-04T09:42:49;3.90;;;3.50;;
13331;SDS011;6735;51.456;12.626;2023-01-04T09:50:23;3.87;;;3.10;;
13331;SDS011;6735;51.456;12.626;2023-01-04T09:53:17;3.50;;;3.10;;
13331;SDS011;6735;51.456;12.626;2023-01-04T09:55:53;2.93;;;2.73;;
13331;SDS011;6735;51.456;12.626;2023-01-04T09:58:26;2.97;;;2.60;;
13331;SDS011;6735;51.456;12.626;2023-01-04T10:01:04;3.40;;;2.90;;
13331;SDS011;6735;51.456;12.626;2023-01-04T10:03:35;3.23;;;2.93;;
13331;SDS011;6735;51.456;12.626;2023-01-04T10:06:04;3.70;;;2.77;;
13331;SDS011;6735;51.456;12.626;2023-01-04T10:08:33;2.60;;;2.40;;
13331;SDS011;6735;51.456;12.626;2023-01-04T10:11:02;2.90;;;2.53;;
13331;SDS011;6735;51.456;12.626;2023-01-04T10:16:40;3.27;;;2.60;;
13331;SDS011;6735;51.456;12.626;2023-01-04T10:22:25;4.90;;;2.60;;
13331;SDS011;6735;51.456;12.626;2023-01-04T10:24:59;2.80;;;2.30;;
13331;SDS011;6735;51.456;12.626;2023-01-04T10:27:56;3.00;;;2.57;;
13331;SDS011;6735;51.456;12.626;2023-01-04T10:30:37;2.40;;;2.13;;
13331;SDS011;6735;51.456;12.626;2023-01-04T10:36:12;2.67;;;2.23;;
13331;SDS011;6735;51.456;12.626;2023-01-04T10:38:42;2.40;;;2.20;;
13331;SDS011;6735;51.456;12.626;2023-01-04T10:41:09;4.73;;;2.40;;
13331;SDS011;6735;51.456;12.626;2023-01-04T10:43:45;2.60;;;2.40;;
13331;SDS011;6735;51.456;12.626;2023-01-04T10:46:28;2.63;;;2.43;;
13331;SDS011;6735;51.456;12.626;2023-01-04T10:49:05;2.73;;;2.50;;
13331;SDS011;6735;51.456;12.626;2023-01-04T10:51:39;2.60;;;2.40;;
13331;SDS011;6735;51.456;12.626;2023-01-04T10:54:33;3.67;;;2.60;;
13331;SDS011;6735;51.456;12.626;2023-01-04T10:57:09;2.77;;;2.50;;
13331;SDS011;6735;51.456;12.626;2023-01-04T10:59:43;3.47;;;2.40;;
13331;SDS011;6735;51.456;12.626;2023-01-04T11:04:51;4.30;;;2.63;;
13331;SDS011;6735;51.456;12.626;2023-01-04T11:07:44;3.10;;;2.80;;
13331;SDS011;6735;51.456;12.626;2023-01-04T11:10:35;2.70;;;2.50;;
13331;SDS011;6735;51.456;12.626;2023-01-04T11:13:06;3.20;;;2.63;;
13331;SDS011;6735;51.456;12.626;2023-01-04T11:15:31;3.70;;;2.93;;
13331;SDS011;6735;51.456;12.626;2023-01-04T11:17:59;3.03;;;2.80;;
13331;SDS011;6735;51.456;12.626;2023-01-04T11:20:26;3.30;;;2.67;;
13331;SDS011;6735;51.456;12.626;2023-01-04T11:22:57;3.03;;;2.60;;
13331;SDS011;6735;51.456;12.626;2023-01-04T11:25:32;3.30;;;2.63;;
13331;SDS011;6735;51.456;12.626;2023-01-04T11:29:03;2.80;;;2.60;;
13331;SDS011;6735;51.456;12.626;2023-01-04T11:36:41;2.57;;;2.37;;
13331;SDS011;6735;51.456;12.626;2023-01-04T11:39:24;2.63;;;2.43;;
13331;SDS011;6735;51.456;12.626;2023-01-04T11:41:54;3.53;;;2.50;;
13331;SDS011;6735;51.456;12.626;2023-01-04T11:44:30;3.33;;;2.83;;
13331;SDS011;6735;51.456;12.626;2023-01-04T11:47:07;2.80;;;2.60;;
13331;SDS011;6735;51.456;12.626;2023-01-04T11:49:40;3.27;;;2.97;;
13331;SDS011;6735;51.456;12.626;2023-01-04T11:52:08;3.53;;;2.50;;
13331;SDS011;6735;51.456;12.626;2023-01-04T11:54:57;2.83;;;2.63;;
13331;SDS011;6735;51.456;12.626;2023-01-04T11:57:40;3.07;;;2.77;;
13331;SDS011;6735;51.456;12.626;2023-01-04T12:00:07;2.57;;;2.37;;
13331;SDS011;6735;51.456;12.626;2023-01-04T12:02:38;3.60;;;3.00;;
13331;SDS011;6735;51.456;12.626;2023-01-04T12:05:08;2.90;;;2.70;;
13331;SDS011;6735;51.456;12.626;2023-01-04T12:07:44;3.37;;;2.90;;
13331;SDS011;6735;51.456;12.626;2023-01-04T12:10:23;3.47;;;2.80;;
13331;SDS011;6735;51.456;12.626;2023-01-04T12:12:51;3.83;;;2.80;;
13331;SDS011;6735;51.456;12.626;2023-01-04T12:15:26;2.80;;;2.60;;
13331;SDS011;6735;51.456;12.626;2023-01-04T12:18:12;3.67;;;2.70;;
13331;SDS011;6735;51.456;12.626;2023-01-04T12:20:43;2.77;;;2.57;;
13331;SDS011;6735;51.456;12.626;2023-01-04T12:23:10;3.43;;;2.77;;
13331;SDS011;6735;51.456;12.626;2023-01-04T12:25:37;3.37;;;2.80;;
13331;SDS011;6735;51.456;12.626;2023-01-04T12:31:25;2.57;;;2.37;;
13331;SDS011;6735;51.456;12.626;2023-01-04T12:33:51;3.63;;;2.43;;
13331;SDS011;6735;51.456;12.626;2023-01-04T12:44:55;3.00;;;2.80;;
13331;SDS011;6735;51.456;12.626;2023-01-04T12:47:01;2.50;;;2.30;;
13331;SDS011;6735;51.456;12.626;2023-01-04T12:49:49;2.40;;;2.20;;
13331;SDS011;6735;51.456;12.626;2023-01-04T12:54:58;2.80;;;2.60;;
13331;SDS011;6735;51.456;12.626;2023-01-04T12:57:38;2.40;;;2.30;;
13331;SDS011;6735;51.456;12.626;2023-01-04T13:15:38;2.33;;;2.10;;
13331;SDS011;6735;51.456;12.626;2023-01-04T13:18:14;2.40;;;2.10;;
13331;SDS011;6735;51.456;12.626;2023-01-04T13:20:53;3.63;;;2.33;;
13331;SDS011;6735;51.456;12.626;2023-01-04T13:23:19;3.40;;;2.13;;
13331;SDS011;6735;51.456;12.626;2023-01-04T13:25:45;2.50;;;2.20;;
13331;SDS011;6735;51.456;12.626;2023-01-04T13:28:15;2.57;;;2.30;;
13331;SDS011;6735;51.456;12.626;2023-01-04T13:30:42;2.10;;;1.90;;
13331;SDS011;6735;51.456;12.626;2023-01-04T13:33:17;3.00;;;2.07;;
13331;SDS011;6735;51.456;12.626;2023-01-04T13:35:56;2.00;;;1.80;;
13331;SDS011;6735;51.456;12.626;2023-01-04T13:38:25;2.33;;;2.00;;
13331;SDS011;6735;51.456;12.626;2023-01-04T13:40:51;2.67;;;2.10;;
13331;SDS011;6735;51.456;12.626;2023-01-04T13:46:08;6.20;;;2.37;;
13331;SDS011;6735;51.456;12.626;2023-01-04T13:48:40;2.00;;;1.90;;
13331;SDS011;6735;51.456;12.626;2023-01-04T13:51:12;2.17;;;2.00;;
13331;SDS011;6735;51.456;12.626;2023-01-04T13:53:52;2.50;;;2.30;;
13331;SDS011;6735;51.456;12.626;2023-01-04T13:56:23;2.77;;;2.57;;
13331;SDS011;6735;51.456;12.626;2023-01-04T13:58:50;2.27;;;2.00;;
13331;SDS011;6735;51.456;12.626;2023-01-04T14:03:45;2.27;;;2.13;;
13331;SDS011;6735;51.456;12.626;2023-01-04T14:06:15;3.37;;;2.17;;
13331;SDS011;6735;51.456;12.626;2023-01-04T14:11:33;2.80;;;2.60;;
13331;SDS011;6735;51.456;12.626;2023-01-04T14:14:32;2.10;;;1.90;;
13331;SDS011;6735;51.456;12.626;2023-01-04T14:19:39;2.97;;;2.00;;
13331;SDS011;6735;51.456;12.626;2023-01-04T14:24:57;1.90;;;1.80;;
13331;SDS011;6735;51.456;12.626;2023-01-04T14:27:30;2.07;;;1.97;;
13331;SDS011;6735;51.456;12.626;2023-01-04T14:30:14;1.90;;;1.70;;
13331;SDS011;6735;51.456;12.626;2023-01-04T14:32:58;2.23;;;2.03;;
13331;SDS011;6735;51.456;12.626;2023-01-04T14:35:26;2.10;;;2.00;;
13331;SDS011;6735;51.456;12.626;2023-01-04T14:37:53;3.50;;;1.93;;
13331;SDS011;6735;51.456;12.626;2023-01-04T14:40:26;2.00;;;1.80;;
13331;SDS011;6735;51.456;12.626;2023-01-04T14:42:55;3.03;;;1.97;;
13331;SDS011;6735;51.456;12.626;2023-01-04T14:45:21;2.00;;;1.90;;
13331;SDS011;6735;51.456;12.626;2023-01-04T14:47:47;2.13;;;1.80;;
13331;SDS011;6735;51.456;12.626;2023-01-04T14:50:13;2.17;;;2.07;;
13331;SDS011;6735;51.456;12.626;2023-01-04T14:52:40;1.87;;;1.77;;
13331;SDS011;6735;51.456;12.626;2023-01-04T14:55:05;2.00;;;1.70;;
13331;SDS011;6735;51.456;12.626;2023-01-04T14:57:31;2.30;;;2.10;;
13331;SDS011;6735;51.456;12.626;2023-01-04T14:59:59;1.57;;;1.50;;
13331;SDS011;6735;51.456;12.626;2023-01-04T15:02:25;2.00;;;1.90;;
13331;SDS011;6735;51.456;12.626;2023-01-04T15:04:53;2.10;;;2.00;;
13331;SDS011;6735;51.456;12.626;2023-01-04T15:07:32;2.07;;;1.97;;
13331;SDS011;6735;51.456;12.626;2023-01-04T15:10:00;2.00;;;1.80;;
13331;SDS011;6735;51.456;12.626;2023-01-04T15:12:26;1.70;;;1.60;;
13331;SDS011;6735;51.456;12.626;2023-01-04T15:14:52;1.90;;;1.80;;
13331;SDS011;6735;51.456;12.626;2023-01-04T15:17:17;2.17;;;2.00;;
13331;SDS011;6735;51.456;12.626;2023-01-04T15:19:43;3.63;;;3.33;;
13331;SDS011;6735;51.456;12.626;2023-01-04T15:22:08;3.40;;;3.10;;
13331;SDS011;6735;51.456;12.626;2023-01-04T15:24:34;1.87;;;1.77;;
13331;SDS011;6735;51.456;12.626;2023-01-04T15:26:59;3.50;;;1.90;;
13331;SDS011;6735;51.456;12.626;2023-01-04T15:29:24;1.70;;;1.60;;
13331;SDS011;6735;51.456;12.626;2023-01-04T15:31:50;4.03;;;3.50;;
13331;SDS011;6735;51.456;12.626;2023-01-04T15:34:15;2.40;;;2.30;;
13331;SDS011;6735;51.456;12.626;2023-01-04T15:36:42;1.87;;;1.77;;
13331;SDS011;6735;51.456;12.626;2023-01-04T15:39:10;1.87;;;1.77;;
13331;SDS011;6735;51.456;12.626;2023-01-04T15:41:37;1.63;;;1.53;;
13331;SDS011;6735;51.456;12.626;2023-01-04T15:44:21;1.70;;;1.60;;
13331;SDS011;6735;51.456;12.626;2023-01-04T15:46:46;1.70;;;1.60;;
13331;SDS011;6735;51.456;12.626;2023-01-04T15:49:12;1.70;;;1.60;;
13331;SDS011;6735;51.456;12.626;2023-01-04T15:51:38;1.90;;;1.80;;
13331;SDS011;6735;51.456;12.626;2023-01-04T15:54:03;2.00;;;1.90;;
13331;SDS011;6735;51.456;12.626;2023-01-04T15:56:29;2.73;;;2.53;;
13331;SDS011;6735;51.456;12.626;2023-01-04T15:58:54;1.80;;;1.70;;
13331;SDS011;6735;51.456;12.626;2023-01-04T16:01:20;1.40;;;1.40;;
13331;SDS011;6735;51.456;12.626;2023-01-04T16:03:46;2.43;;;2.23;;
13331;SDS011;6735;51.456;12.626;2023-01-04T16:06:13;1.83;;;1.73;;
13331;SDS011;6735;51.456;12.626;2023-01-04T16:08:40;2.00;;;1.90;;
13331;SDS011;6735;51.456;12.626;2023-01-04T16:11:07;1.87;;;1.60;;
13331;SDS011;6735;51.456;12.626;2023-01-04T16:13:43;1.77;;;1.67;;
13331;SDS011;6735;51.456;12.626;2023-01-04T16:16:09;2.20;;;2.00;;
13331;SDS011;6735;51.456;12.626;2023-01-04T16:18:35;1.50;;;1.40;;
13331;SDS011;6735;51.456;12.626;2023-01-04T16:21:05;1.60;;;1.50;;
13331;SDS011;6735;51.456;12.626;2023-01-04T16:23:32;1.67;;;1.57;;
13331;SDS011;6735;51.456;12.626;2023-01-04T16:26:04;2.73;;;1.50;;
13331;SDS011;6735;51.456;12.626;2023-01-04T16:28:31;1.50;;;1.40;;
13331;SDS011;6735;51.456;12.626;2023-01-04T16:30:57;2.23;;;2.13;;
13331;SDS011;6735;51.456;12.626;2023-01-04T16:33:23;1.63;;;1.53;;